Time;durP1;ratioP1;P1;durP2;ratioP2;P2;SDS_P1;SDS_P2;PMS_P1;PMS_P2;Temp;Humidity;BMP_temperature;BMP_pressure;BME280_temperature;BME280_humidity;BME280_pressure;Samples;Min_cycle;Max_cycle;Signal;HPM_P1;HPM_P2
2020/12/24 21:52:46;;;;;;;12.73;5.03;;;;;;;-10.00;85.71;100928.00;1795127;78;22529;-58
2020/12/24 21:55:15;;;;;;;12.28;6.12;;;;;;;-10.07;85.81;100934.90;1752096;80;21030;-58
2020/12/24 21:57:43;;;;;;;12.47;5.55;;;;;;;-10.11;86.00;100930.36;1708889;83;21216;-49
2020/12/24 22:00:11;;;;;;;14.07;6.90;;;;;;;-10.12;86.41;100931.20;1713622;83;20967;-49
2020/12/24 22:02:41;;;;;;;10.90;5.12;;;;;;;-10.12;86.71;100922.38;1720128;83;20987;-58
2020/12/24 22:05:09;;;;;;;13.70;5.30;;;;;;;-10.13;86.85;100916.94;1702849;83;20994;-58
2020/12/24 22:07:37;;;;;;;13.28;5.30;;;;;;;-10.12;86.99;100925.33;1716220;83;21018;-57
2020/12/24 22:10:06;;;;;;;12.68;6.12;;;;;;;-10.13;87.28;100924.50;1729563;82;21167;-58
2020/12/24 22:12:34;;;;;;;14.10;6.35;;;;;;;-10.12;87.53;100928.67;1688912;84;21077;-58
2020/12/24 22:15:02;;;;;;;12.30;5.08;;;;;;;-10.11;87.74;100928.27;1694672;84;21018;-49
2020/12/24 22:17:31;;;;;;;13.05;7.00;;;;;;;-10.11;87.76;100935.84;1693984;84;21184;-49
2020/12/24 22:20:00;;;;;;;10.30;5.67;;;;;;;-10.10;87.63;100926.96;1691695;84;20947;-49
2020/12/24 22:22:28;;;;;;;15.40;6.30;;;;;;;-10.11;87.67;100924.05;1701501;84;21224;-58
2020/12/24 22:24:57;;;;;;;13.05;5.92;;;;;;;-10.11;87.77;100927.02;1696317;82;21061;-49
2020/12/24 22:27:25;;;;;;;15.25;6.65;;;;;;;-10.14;87.94;100919.08;1692172;82;21063;-50
2020/12/24 22:29:54;;;;;;;13.60;5.95;;;;;;;-10.15;88.05;100914.91;1686915;84;21002;-49
2020/12/24 22:32:24;;;;;;;14.87;6.25;;;;;;;-10.16;88.14;100913.23;1685789;84;21184;-49
2020/12/24 22:34:52;;;;;;;18.07;6.65;;;;;;;-10.17;88.38;100913.27;1686706;82;21223;-59
2020/12/24 22:37:20;;;;;;;19.42;7.90;;;;;;;-10.18;88.59;100918.75;1697659;84;21014;-58
2020/12/24 22:39:49;;;;;;;16.60;7.37;;;;;;;-10.17;88.76;100913.27;1697998;84;21140;-59
2020/12/24 22:42:17;;;;;;;14.07;6.00;;;;;;;-10.18;88.84;100911.19;1704666;82;21034;-50
2020/12/24 22:44:46;;;;;;;14.55;6.20;;;;;;;-10.19;88.85;100902.38;1699256;84;21141;-59
2020/12/24 22:47:14;;;;;;;15.85;7.42;;;;;;;-10.22;88.78;100886.92;1692538;84;21378;-58
2020/12/24 22:49:42;;;;;;;17.05;7.47;;;;;;;-10.23;89.00;100889.02;1686167;84;21192;-48
2020/12/24 22:52:10;;;;;;;18.95;8.05;;;;;;;-10.23;89.14;100891.55;1703916;83;21528;-48
2020/12/24 22:54:38;;;;;;;15.65;6.62;;;;;;;-10.23;89.33;100885.24;1734118;82;20943;-56
2020/12/24 22:57:06;;;;;;;17.32;6.28;;;;;;;-10.23;89.43;100883.98;1699878;83;21039;-57
2020/12/24 22:59:35;;;;;;;17.60;7.10;;;;;;;-10.24;89.50;100883.59;1728718;82;21253;-48
2020/12/24 23:02:03;;;;;;;19.85;8.25;;;;;;;-10.25;89.57;100884.50;1728470;82;21062;-57
2020/12/24 23:04:31;;;;;;;15.48;6.37;;;;;;;-10.25;89.59;100888.28;1686867;83;20968;-48
2020/12/24 23:07:00;;;;;;;22.02;7.47;;;;;;;-10.26;89.84;100888.30;1723347;82;21007;-49
2020/12/24 23:09:28;;;;;;;14.78;6.60;;;;;;;-10.27;89.91;100877.39;1683907;83;21075;-58
2020/12/24 23:11:56;;;;;;;17.02;7.47;;;;;;;-10.27;90.03;100874.87;1699365;83;21445;-48
2020/12/24 23:14:24;;;;;;;19.10;7.67;;;;;;;-10.26;90.14;100873.17;1698485;83;21035;-48
2020/12/24 23:16:52;;;;;;;15.45;6.72;;;;;;;-10.27;90.34;100866.05;1724635;82;21048;-49
2020/12/24 23:19:20;;;;;;;19.73;8.48;;;;;;;-10.26;90.51;100875.28;1709993;82;21226;-49
2020/12/24 23:21:48;;;;;;;13.32;5.95;;;;;;;-10.27;90.48;100877.39;1706430;82;21009;-58
2020/12/24 23:24:17;;;;;;;14.47;7.83;;;;;;;-10.27;90.63;100878.64;1723487;82;21390;-48
2020/12/24 23:26:45;;;;;;;16.12;9.70;;;;;;;-10.27;90.75;100891.69;1732881;82;21196;-57
2020/12/24 23:29:14;;;;;;;18.05;8.60;;;;;;;-10.29;90.81;100889.21;1710433;82;20957;-57
2020/12/24 23:31:42;;;;;;;12.53;6.47;;;;;;;-10.30;90.99;100888.83;1708065;82;21200;-48
2020/12/24 23:34:11;;;;;;;14.95;7.75;;;;;;;-10.29;91.17;100913.16;1703424;82;21171;-57
2020/12/24 23:36:39;;;;;;;17.67;8.28;;;;;;;-10.29;91.29;100915.68;1733515;82;21371;-57
2020/12/24 23:39:07;;;;;;;15.98;7.55;;;;;;;-10.28;91.55;100895.91;1710312;82;21135;-57
2020/12/24 23:41:35;;;;;;;15.28;7.25;;;;;;;-10.27;91.64;100895.03;1716981;82;21034;-48
2020/12/24 23:44:05;;;;;;;13.30;7.55;;;;;;;-10.26;91.77;100894.19;1678481;83;21093;-49
2020/12/24 23:46:33;;;;;;;13.40;6.00;;;;;;;-10.24;91.98;100887.81;1722836;82;21030;-48
2020/12/24 23:49:01;;;;;;;12.80;6.45;;;;;;;-10.23;92.03;100886.50;1706986;82;21209;-57
2020/12/24 23:51:29;;;;;;;34.63;18.25;;;;;;;-10.22;91.97;100874.75;1723665;82;20975;-48
2020/12/24 23:53:58;;;;;;;18.87;8.23;;;;;;;-10.25;91.83;100881.98;1677303;84;21011;-57
2020/12/24 23:56:29;;;;;;;14.87;6.92;;;;;;;-10.28;91.82;100877.00;1739145;82;21208;-49
2020/12/24 23:58:57;;;;;;;15.32;7.08;;;;;;;-10.28;92.21;100866.09;1711762;82;20946;-48
